sensor_id;sensor_type;location;lat;lon;timestamp;pressure;altitude;pressure_sealevel;temperature;humidity
66547;BME280;53400;50.364;14.874;2023-10-08T00:01:20;98683.16;;;16.48;81.96
66547;BME280;53400;50.364;14.874;2023-10-08T00:03:48;98682.63;;;16.46;82.07
66547;BME280;53400;50.364;14.874;2023-10-08T00:06:15;98676.94;;;16.52;81.60
66547;BME280;53400;50.364;14.874;2023-10-08T00:08:41;98676.16;;;16.47;81.72
66547;BME280;53400;50.364;14.874;2023-10-08T00:11:07;98662.91;;;16.45;82.05
66547;BME280;53400;50.364;14.874;2023-10-08T00:13:36;98667.50;;;16.45;82.21
66547;BME280;53400;50.364;14.874;2023-10-08T00:16:10;98669.16;;;16.41;82.12
66547;BME280;53400;50.364;14.874;2023-10-08T00:18:38;98668.31;;;16.45;82.23
66547;BME280;53400;50.364;14.874;2023-10-08T00:21:15;98670.78;;;16.42;82.13
66547;BME280;53400;50.364;14.874;2023-10-08T00:23:41;98660.75;;;16.42;81.94
66547;BME280;53400;50.364;14.874;2023-10-08T00:26:18;98666.97;;;16.43;82.13
66547;BME280;53400;50.364;14.874;2023-10-08T00:28:54;98662.41;;;16.43;82.24
66547;BME280;53400;50.364;14.874;2023-10-08T00:31:23;98657.50;;;16.45;82.15
66547;BME280;53400;50.364;14.874;2023-10-08T00:33:57;98660.25;;;16.40;82.46
66547;BME280;53400;50.364;14.874;2023-10-08T00:36:23;98657.50;;;16.45;82.31
66547;BME280;53400;50.364;14.874;2023-10-08T00:38:50;98648.25;;;16.51;81.90
66547;BME280;53400;50.364;14.874;2023-10-08T00:41:19;98644.72;;;16.56;81.64
66547;BME280;53400;50.364;14.874;2023-10-08T00:43:47;98643.41;;;16.48;81.90
66547;BME280;53400;50.364;14.874;2023-10-08T00:46:15;98629.56;;;16.55;81.48
66547;BME280;53400;50.364;14.874;2023-10-08T00:48:45;98627.72;;;16.50;81.54
66547;BME280;53400;50.364;14.874;2023-10-08T00:51:13;98631.19;;;16.56;81.65
66547;BME280;53400;50.364;14.874;2023-10-08T00:53:50;98634.16;;;16.55;81.78
66547;BME280;53400;50.364;14.874;2023-10-08T00:56:18;98627.69;;;16.56;81.63
66547;BME280;53400;50.364;14.874;2023-10-08T00:58:45;98627.69;;;16.56;81.88
66547;BME280;53400;50.364;14.874;2023-10-08T01:01:19;98627.97;;;16.54;81.78
66547;BME280;53400;50.364;14.874;2023-10-08T01:03:47;98631.47;;;16.55;81.94
66547;BME280;53400;50.364;14.874;2023-10-08T01:06:18;98622.00;;;16.57;81.89
66547;BME280;53400;50.364;14.874;2023-10-08T01:08:44;98614.97;;;16.56;81.67
66547;BME280;53400;50.364;14.874;2023-10-08T01:11:19;98616.03;;;16.55;81.75
66547;BME280;53400;50.364;14.874;2023-10-08T01:13:48;98624.69;;;16.57;81.62
66547;BME280;53400;50.364;14.874;2023-10-08T01:16:15;98613.53;;;16.64;81.42
66547;BME280;53400;50.364;14.874;2023-10-08T01:18:40;98613.13;;;16.51;81.98
66547;BME280;53400;50.364;14.874;2023-10-08T01:21:12;98609.03;;;16.54;82.17
66547;BME280;53400;50.364;14.874;2023-10-08T01:23:56;98617.63;;;16.61;81.60
66547;BME280;53400;50.364;14.874;2023-10-08T01:26:26;98610.13;;;16.53;82.21
66547;BME280;53400;50.364;14.874;2023-10-08T01:28:54;98604.19;;;16.51;82.49
66547;BME280;53400;50.364;14.874;2023-10-08T01:31:21;98608.19;;;16.59;82.24
66547;BME280;53400;50.364;14.874;2023-10-08T01:33:46;98608.47;;;16.57;81.98
66547;BME280;53400;50.364;14.874;2023-10-08T01:36:19;98610.91;;;16.59;82.22
66547;BME280;53400;50.364;14.874;2023-10-08T01:38:45;98605.16;;;16.65;82.04
66547;BME280;53400;50.364;14.874;2023-10-08T01:41:16;98606.19;;;16.69;81.91
66547;BME280;53400;50.364;14.874;2023-10-08T01:43:46;98607.28;;;16.68;81.84
66547;BME280;53400;50.364;14.874;2023-10-08T01:46:12;98597.84;;;16.66;82.20
66547;BME280;53400;50.364;14.874;2023-10-08T01:48:38;98602.22;;;16.62;82.46
66547;BME280;53400;50.364;14.874;2023-10-08T01:51:05;98596.00;;;16.61;82.68
66547;BME280;53400;50.364;14.874;2023-10-08T01:53:50;98599.94;;;16.74;82.15
66547;BME280;53400;50.364;14.874;2023-10-08T01:56:18;98584.88;;;16.68;82.32
66547;BME280;53400;50.364;14.874;2023-10-08T01:58:44;98595.06;;;16.76;82.03
66547;BME280;53400;50.364;14.874;2023-10-08T02:01:12;98585.81;;;16.82;81.42
66547;BME280;53400;50.364;14.874;2023-10-08T02:03:42;98589.78;;;16.90;81.25
66547;BME280;53400;50.364;14.874;2023-10-08T02:06:08;98602.44;;;16.94;81.17
66547;BME280;53400;50.364;14.874;2023-10-08T02:08:34;98585.59;;;16.79;82.46
66547;BME280;53400;50.364;14.874;2023-10-08T02:11:00;98593.41;;;16.80;82.47
66547;BME280;53400;50.364;14.874;2023-10-08T02:13:29;98592.78;;;16.88;81.71
66547;BME280;53400;50.364;14.874;2023-10-08T02:15:56;98587.44;;;16.83;81.97
66547;BME280;53400;50.364;14.874;2023-10-08T02:18:23;98597.44;;;16.83;82.10
66547;BME280;53400;50.364;14.874;2023-10-08T02:20:51;98593.66;;;16.84;82.44
66547;BME280;53400;50.364;14.874;2023-10-08T02:23:17;98589.56;;;16.86;82.64
66547;BME280;53400;50.364;14.874;2023-10-08T02:25:44;98607.69;;;16.86;82.36
66547;BME280;53400;50.364;14.874;2023-10-08T02:28:10;98597.13;;;16.89;82.46
66547;BME280;53400;50.364;14.874;2023-10-08T02:30:40;98594.16;;;16.86;82.73
66547;BME280;53400;50.364;14.874;2023-10-08T02:33:07;98597.91;;;16.90;82.59
66547;BME280;53400;50.364;14.874;2023-10-08T02:35:42;98588.47;;;16.87;82.69
66547;BME280;53400;50.364;14.874;2023-10-08T02:38:09;98597.56;;;16.96;83.11
66547;BME280;53400;50.364;14.874;2023-10-08T02:40:37;98585.94;;;16.96;83.19
66547;BME280;53400;50.364;14.874;2023-10-08T02:43:03;98588.69;;;16.91;83.26
66547;BME280;53400;50.364;14.874;2023-10-08T02:45:34;98592.44;;;16.95;83.44
66547;BME280;53400;50.364;14.874;2023-10-08T02:48:06;98590.81;;;16.94;83.17
66547;BME280;53400;50.364;14.874;2023-10-08T02:50:38;98591.41;;;16.91;83.49
66547;BME280;53400;50.364;14.874;2023-10-08T02:53:05;98595.44;;;16.93;83.56
66547;BME280;53400;50.364;14.874;2023-10-08T02:55:36;98594.56;;;16.98;83.48
66547;BME280;53400;50.364;14.874;2023-10-08T02:58:07;98605.28;;;17.08;83.35
66547;BME280;53400;50.364;14.874;2023-10-08T03:00:39;98593.94;;;17.06;83.22
66547;BME280;53400;50.364;14.874;2023-10-08T03:03:08;98592.88;;;17.07;83.40
66547;BME280;53400;50.364;14.874;2023-10-08T03:05:46;98588.53;;;17.06;83.51
66547;BME280;53400;50.364;14.874;2023-10-08T03:08:12;98603.19;;;17.00;83.71
66547;BME280;53400;50.364;14.874;2023-10-08T03:10:39;98605.09;;;17.00;83.45
66547;BME280;53400;50.364;14.874;2023-10-08T03:13:06;98600.69;;;17.09;83.43
66547;BME280;53400;50.364;14.874;2023-10-08T03:15:33;98603.69;;;17.07;83.51
66547;BME280;53400;50.364;14.874;2023-10-08T03:18:19;98615.31;;;17.08;83.29
66547;BME280;53400;50.364;14.874;2023-10-08T03:20:47;98624.31;;;16.98;83.73
66547;BME280;53400;50.364;14.874;2023-10-08T03:23:16;98628.53;;;17.09;83.46
66547;BME280;53400;50.364;14.874;2023-10-08T03:26:00;98622.09;;;17.05;83.75
66547;BME280;53400;50.364;14.874;2023-10-08T03:28:28;98620.72;;;17.08;83.53
66547;BME280;53400;50.364;14.874;2023-10-08T03:30:55;98625.19;;;16.93;84.23
66547;BME280;53400;50.364;14.874;2023-10-08T03:33:34;98636.72;;;17.04;83.89
66547;BME280;53400;50.364;14.874;2023-10-08T03:36:02;98631.81;;;17.06;84.04
66547;BME280;53400;50.364;14.874;2023-10-08T03:38:46;98643.50;;;17.02;84.49
66547;BME280;53400;50.364;14.874;2023-10-08T03:41:22;98644.59;;;17.25;84.48
66547;BME280;53400;50.364;14.874;2023-10-08T03:43:53;98658.03;;;17.35;84.84
66547;BME280;53400;50.364;14.874;2023-10-08T03:46:28;98665.34;;;17.34;84.67
66547;BME280;53400;50.364;14.874;2023-10-08T03:48:56;98690.53;;;17.35;88.33
66547;BME280;53400;50.364;14.874;2023-10-08T03:51:23;98698.78;;;16.56;98.30
66547;BME280;53400;50.364;14.874;2023-10-08T03:53:53;98727.44;;;15.37;100.00
66547;BME280;53400;50.364;14.874;2023-10-08T03:56:33;98744.19;;;14.53;100.00
66547;BME280;53400;50.364;14.874;2023-10-08T03:59:02;98737.56;;;14.03;100.00
66547;BME280;53400;50.364;14.874;2023-10-08T04:01:47;98738.03;;;13.79;100.00
66547;BME280;53400;50.364;14.874;2023-10-08T04:04:22;98749.75;;;13.52;100.00
66547;BME280;53400;50.364;14.874;2023-10-08T04:06:56;98755.22;;;13.25;100.00
66547;BME280;53400;50.364;14.874;2023-10-08T04:09:42;98753.66;;;13.02;100.00
66547;BME280;53400;50.364;14.874;2023-10-08T04:12:08;98766.25;;;12.92;100.00
66547;BME280;53400;50.364;14.874;2023-10-08T04:14:36;98768.16;;;12.96;100.00
66547;BME280;53400;50.364;14.874;2023-10-08T04:17:02;98787.69;;;12.86;100.00
66547;BME280;53400;50.364;14.874;2023-10-08T04:19:30;98801.03;;;12.76;100.00
66547;BME280;53400;50.364;14.874;2023-10-08T04:21:56;98817.22;;;12.54;100.00
66547;BME280;53400;50.364;14.874;2023-10-08T04:24:23;98847.72;;;12.43;100.00
66547;BME280;53400;50.364;14.874;2023-10-08T04:27:00;98846.28;;;12.35;100.00
66547;BME280;53400;50.364;14.874;2023-10-08T04:29:32;98848.63;;;12.27;100.00
66547;BME280;53400;50.364;14.874;2023-10-08T04:31:59;98851.81;;;12.24;100.00
66547;BME280;53400;50.364;14.874;2023-10-08T04:34:35;98855.22;;;11.97;100.00
66547;BME280;53400;50.364;14.874;2023-10-08T04:37:01;98864.34;;;11.96;100.00
66547;BME280;53400;50.364;14.874;2023-10-08T04:39:29;98845.47;;;11.74;100.00
66547;BME280;53400;50.364;14.874;2023-10-08T04:41:58;98852.38;;;11.53;100.00
66547;BME280;53400;50.364;14.874;2023-10-08T04:44:28;98862.00;;;11.49;100.00
66547;BME280;53400;50.364;14.874;2023-10-08T04:46:58;98866.88;;;11.35;100.00
66547;BME280;53400;50.364;14.874;2023-10-08T04:49:30;98891.66;;;11.42;100.00
66547;BME280;53400;50.364;14.874;2023-10-08T04:52:00;98906.38;;;11.40;100.00
66547;BME280;53400;50.364;14.874;2023-10-08T04:54:27;98884.09;;;11.22;100.00
66547;BME280;53400;50.364;14.874;2023-10-08T04:56:57;98897.44;;;11.17;100.00
66547;BME280;53400;50.364;14.874;2023-10-08T04:59:24;98896.53;;;11.12;100.00
66547;BME280;53400;50.364;14.874;2023-10-08T05:01:58;98904.19;;;11.20;100.00
66547;BME280;53400;50.364;14.874;2023-10-08T05:04:43;98899.34;;;11.05;100.00
66547;BME280;53400;50.364;14.874;2023-10-08T05:07:19;98899.59;;;10.75;100.00
66547;BME280;53400;50.364;14.874;2023-10-08T05:10:05;98905.03;;;10.51;100.00
66547;BME280;53400;50.364;14.874;2023-10-08T05:12:34;98899.34;;;10.48;100.00
66547;BME280;53400;50.364;14.874;2023-10-08T05:15:04;98886.44;;;10.45;100.00
66547;BME280;53400;50.364;14.874;2023-10-08T05:17:39;98909.63;;;10.27;100.00
66547;BME280;53400;50.364;14.874;2023-10-08T05:20:22;98912.53;;;10.26;100.00
66547;BME280;53400;50.364;14.874;2023-10-08T05:23:09;98930.34;;;10.20;100.00
66547;BME280;53400;50.364;14.874;2023-10-08T05:25:52;98924.66;;;10.05;100.00
66547;BME280;53400;50.364;14.874;2023-10-08T05:28:24;98933.81;;;9.97;100.00
66547;BME280;53400;50.364;14.874;2023-10-08T05:30:51;98941.75;;;9.80;100.00
66547;BME280;53400;50.364;14.874;2023-10-08T05:33:36;98967.91;;;9.90;100.00
66547;BME280;53400;50.364;14.874;2023-10-08T05:36:20;98994.97;;;9.70;100.00
66547;BME280;53400;50.364;14.874;2023-10-08T05:38:55;98994.88;;;9.65;100.00
66547;BME280;53400;50.364;14.874;2023-10-08T05:41:27;98997.38;;;9.48;100.00
66547;BME280;53400;50.364;14.874;2023-10-08T05:44:13;98998.44;;;9.47;100.00
66547;BME280;53400;50.364;14.874;2023-10-08T05:46:40;99016.19;;;9.41;100.00
66547;BME280;53400;50.364;14.874;2023-10-08T05:49:14;99022.13;;;9.44;100.00
66547;BME280;53400;50.364;14.874;2023-10-08T05:51:41;99042.47;;;9.45;100.00
66547;BME280;53400;50.364;14.874;2023-10-08T05:54:16;99047.38;;;9.48;100.00
66547;BME280;53400;50.364;14.874;2023-10-08T05:56:56;99053.72;;;9.35;100.00
66547;BME280;53400;50.364;14.874;2023-10-08T05:59:31;99060.53;;;9.31;100.00
66547;BME280;53400;50.364;14.874;2023-10-08T06:02:05;99074.59;;;9.26;100.00
66547;BME280;53400;50.364;14.874;2023-10-08T06:04:51;99076.56;;;9.31;100.00
66547;BME280;53400;50.364;14.874;2023-10-08T06:07:47;99080.59;;;9.22;100.00
66547;BME280;53400;50.364;14.874;2023-10-08T06:10:17;99096.88;;;9.20;100.00
66547;BME280;53400;50.364;14.874;2023-10-08T06:13:23;99103.03;;;9.21;100.00
66547;BME280;53400;50.364;14.874;2023-10-08T06:16:09;99113.34;;;9.17;100.00
66547;BME280;53400;50.364;14.874;2023-10-08T06:18:39;99116.53;;;9.26;100.00
66547;BME280;53400;50.364;14.874;2023-10-08T06:21:06;99118.59;;;9.24;100.00
66547;BME280;53400;50.364;14.874;2023-10-08T06:23:38;99114.81;;;9.13;100.00
66547;BME280;53400;50.364;14.874;2023-10-08T06:26:06;99133.47;;;9.19;100.00
66547;BME280;53400;50.364;14.874;2023-10-08T06:28:42;99124.84;;;9.17;100.00
66547;BME280;53400;50.364;14.874;2023-10-08T06:31:08;99126.88;;;9.22;100.00
66547;BME280;53400;50.364;14.874;2023-10-08T06:33:38;99152.09;;;9.26;100.00
66547;BME280;53400;50.364;14.874;2023-10-08T06:36:07;99159.31;;;9.26;100.00
66547;BME280;53400;50.364;14.874;2023-10-08T06:38:41;99171.84;;;9.25;100.00
66547;BME280;53400;50.364;14.874;2023-10-08T06:41:10;99181.34;;;9.21;100.00
66547;BME280;53400;50.364;14.874;2023-10-08T06:43:40;99207.63;;;9.24;100.00
66547;BME280;53400;50.364;14.874;2023-10-08T06:46:11;99211.19;;;9.18;100.00
66547;BME280;53400;50.364;14.874;2023-10-08T06:48:41;99219.03;;;9.13;100.00
66547;BME280;53400;50.364;14.874;2023-10-08T06:51:12;99215.97;;;9.34;100.00
66547;BME280;53400;50.364;14.874;2023-10-08T06:53:44;99203.41;;;9.35;100.00
66547;BME280;53400;50.364;14.874;2023-10-08T06:56:13;99219.00;;;9.19;97.83
66547;BME280;53400;50.364;14.874;2023-10-08T06:58:39;99237.69;;;9.19;98.03
66547;BME280;53400;50.364;14.874;2023-10-08T07:01:11;99270.22;;;9.35;98.64
66547;BME280;53400;50.364;14.874;2023-10-08T07:03:39;99257.97;;;9.27;98.36
66547;BME280;53400;50.364;14.874;2023-10-08T07:06:05;99244.31;;;9.35;98.76
66547;BME280;53400;50.364;14.874;2023-10-08T07:08:44;99259.19;;;9.50;97.34
66547;BME280;53400;50.364;14.874;2023-10-08T07:11:14;99289.94;;;9.40;98.61
66547;BME280;53400;50.364;14.874;2023-10-08T07:13:41;99277.31;;;9.66;97.74
66547;BME280;53400;50.364;14.874;2023-10-08T07:16:08;99282.84;;;9.64;96.68
66547;BME280;53400;50.364;14.874;2023-10-08T07:18:37;99291.66;;;9.90;96.60
66547;BME280;53400;50.364;14.874;2023-10-08T07:21:03;99289.47;;;9.99;100.00
66547;BME280;53400;50.364;14.874;2023-10-08T07:23:30;99277.91;;;9.86;97.33
66547;BME280;53400;50.364;14.874;2023-10-08T07:26:02;99279.28;;;9.71;97.19
66547;BME280;53400;50.364;14.874;2023-10-08T07:28:39;99287.19;;;9.65;97.85
66547;BME280;53400;50.364;14.874;2023-10-08T07:31:06;99295.22;;;9.84;97.42
66547;BME280;53400;50.364;14.874;2023-10-08T07:33:35;99309.41;;;9.84;96.06
66547;BME280;53400;50.364;14.874;2023-10-08T07:36:02;99319.06;;;9.85;97.58
66547;BME280;53400;50.364;14.874;2023-10-08T07:38:38;99328.72;;;9.86;96.53
66547;BME280;53400;50.364;14.874;2023-10-08T07:41:04;99332.88;;;9.64;97.66
66547;BME280;53400;50.364;14.874;2023-10-08T07:43:31;99320.91;;;9.67;97.10
66547;BME280;53400;50.364;14.874;2023-10-08T07:45:59;99315.03;;;9.76;95.91
66547;BME280;53400;50.364;14.874;2023-10-08T07:48:26;99323.59;;;9.67;96.64
66547;BME280;53400;50.364;14.874;2023-10-08T07:50:56;99331.91;;;9.77;94.82
66547;BME280;53400;50.364;14.874;2023-10-08T07:53:23;99346.03;;;9.65;96.11
66547;BME280;53400;50.364;14.874;2023-10-08T07:55:51;99342.06;;;9.50;97.97
66547;BME280;53400;50.364;14.874;2023-10-08T07:58:18;99346.94;;;9.78;96.69
66547;BME280;53400;50.364;14.874;2023-10-08T08:00:44;99352.28;;;9.78;97.09
66547;BME280;53400;50.364;14.874;2023-10-08T08:03:26;99354.44;;;9.69;96.73
66547;BME280;53400;50.364;14.874;2023-10-08T08:05:52;99350.63;;;9.77;97.85
66547;BME280;53400;50.364;14.874;2023-10-08T08:08:20;99349.69;;;9.71;98.18
66547;BME280;53400;50.364;14.874;2023-10-08T08:10:48;99351.22;;;10.16;96.65
66547;BME280;53400;50.364;14.874;2023-10-08T08:13:17;99365.09;;;10.31;95.58
66547;BME280;53400;50.364;14.874;2023-10-08T08:15:47;99378.31;;;10.26;97.10
66547;BME280;53400;50.364;14.874;2023-10-08T08:18:17;99387.00;;;10.21;97.45
66547;BME280;53400;50.364;14.874;2023-10-08T08:20:49;99378.97;;;10.21;96.50
66547;BME280;53400;50.364;14.874;2023-10-08T08:23:16;99371.47;;;10.11;97.70
66547;BME280;53400;50.364;14.874;2023-10-08T08:25:42;99373.47;;;10.16;97.07
66547;BME280;53400;50.364;14.874;2023-10-08T08:28:22;99370.69;;;10.29;96.89
66547;BME280;53400;50.364;14.874;2023-10-08T08:30:51;99377.72;;;10.24;98.02
66547;BME280;53400;50.364;14.874;2023-10-08T08:33:18;99395.88;;;10.40;99.15
66547;BME280;53400;50.364;14.874;2023-10-08T08:36:01;99399.44;;;10.34;100.00
66547;BME280;53400;50.364;14.874;2023-10-08T08:38:33;99400.91;;;10.48;99.78
66547;BME280;53400;50.364;14.874;2023-10-08T08:41:03;99410.84;;;10.29;100.00
66547;BME280;53400;50.364;14.874;2023-10-08T08:43:36;99425.41;;;10.33;100.00
66547;BME280;53400;50.364;14.874;2023-10-08T08:46:04;99412.38;;;10.37;99.52
66547;BME280;53400;50.364;14.874;2023-10-08T08:48:39;99425.44;;;10.64;99.29
66547;BME280;53400;50.364;14.874;2023-10-08T08:51:07;99421.34;;;10.61;99.38
66547;BME280;53400;50.364;14.874;2023-10-08T08:53:43;99435.38;;;10.93;98.93
66547;BME280;53400;50.364;14.874;2023-10-08T08:56:15;99442.09;;;10.84;99.14
66547;BME280;53400;50.364;14.874;2023-10-08T08:58:43;99433.56;;;10.57;100.00
66547;BME280;53400;50.364;14.874;2023-10-08T09:01:12;99445.75;;;10.90;99.24
66547;BME280;53400;50.364;14.874;2023-10-08T09:03:39;99440.72;;;10.63;100.00
66547;BME280;53400;50.364;14.874;2023-10-08T09:06:06;99445.53;;;10.73;100.00
66547;BME280;53400;50.364;14.874;2023-10-08T09:08:34;99432.97;;;10.55;100.00
66547;BME280;53400;50.364;14.874;2023-10-08T09:11:00;99447.25;;;10.67;100.00
66547;BME280;53400;50.364;14.874;2023-10-08T09:13:35;99451.28;;;10.40;100.00
66547;BME280;53400;50.364;14.874;2023-10-08T09:16:06;99445.00;;;10.64;100.00
66547;BME280;53400;50.364;14.874;2023-10-08T09:18:33;99455.09;;;10.50;100.00
66547;BME280;53400;50.364;14.874;2023-10-08T09:21:10;99466.44;;;10.64;100.00
66547;BME280;53400;50.364;14.874;2023-10-08T09:23:39;99466.47;;;10.94;100.00
66547;BME280;53400;50.364;14.874;2023-10-08T09:26:09;99476.94;;;11.14;100.00
66547;BME280;53400;50.364;14.874;2023-10-08T09:28:37;99477.38;;;10.81;100.00
66547;BME280;53400;50.364;14.874;2023-10-08T09:31:10;99477.53;;;10.68;100.00
66547;BME280;53400;50.364;14.874;2023-10-08T09:33:37;99463.75;;;10.83;100.00
66547;BME280;53400;50.364;14.874;2023-10-08T09:36:05;99469.66;;;10.73;100.00
66547;BME280;53400;50.364;14.874;2023-10-08T09:38:35;99469.34;;;10.81;100.00
66547;BME280;53400;50.364;14.874;2023-10-08T09:41:03;99481.47;;;10.84;100.00
66547;BME280;53400;50.364;14.874;2023-10-08T09:43:31;99483.28;;;10.71;100.00
66547;BME280;53400;50.364;14.874;2023-10-08T09:46:08;99474.28;;;10.66;100.00
66547;BME280;53400;50.364;14.874;2023-10-08T09:48:37;99479.97;;;10.88;100.00
66547;BME280;53400;50.364;14.874;2023-10-08T09:51:04;99481.25;;;11.15;100.00
66547;BME280;53400;50.364;14.874;2023-10-08T09:53:52;99481.72;;;11.12;100.00
66547;BME280;53400;50.364;14.874;2023-10-08T09:56:24;99494.91;;;11.14;100.00
66547;BME280;53400;50.364;14.874;2023-10-08T09:58:58;99495.41;;;11.34;100.00
66547;BME280;53400;50.364;14.874;2023-10-08T10:01:28;99500.47;;;11.12;100.00
66547;BME280;53400;50.364;14.874;2023-10-08T10:03:57;99510.88;;;10.90;100.00
66547;BME280;53400;50.364;14.874;2023-10-08T10:06:27;99507.59;;;10.88;100.00
66547;BME280;53400;50.364;14.874;2023-10-08T10:09:05;99511.16;;;10.82;100.00
66547;BME280;53400;50.364;14.874;2023-10-08T10:11:47;99517.44;;;11.24;100.00
66547;BME280;53400;50.364;14.874;2023-10-08T10:14:14;99521.69;;;11.44;100.00
66547;BME280;53400;50.364;14.874;2023-10-08T10:16:42;99516.97;;;11.69;100.00
66547;BME280;53400;50.364;14.874;2023-10-08T10:19:16;99514.16;;;11.64;100.00
66547;BME280;53400;50.364;14.874;2023-10-08T10:21:45;99511.47;;;11.64;100.00
66547;BME280;53400;50.364;14.874;2023-10-08T10:24:28;99514.03;;;11.59;100.00
66547;BME280;53400;50.364;14.874;2023-10-08T10:27:10;99513.47;;;11.57;100.00
66547;BME280;53400;50.364;14.874;2023-10-08T10:29:36;99511.06;;;11.79;100.00
66547;BME280;53400;50.364;14.874;2023-10-08T10:32:05;99514.72;;;11.97;98.02
66547;BME280;53400;50.364;14.874;2023-10-08T10:34:32;99513.09;;;12.19;98.58
66547;BME280;53400;50.364;14.874;2023-10-08T10:37:00;99524.53;;;12.26;99.86
66547;BME280;53400;50.364;14.874;2023-10-08T10:39:53;99530.38;;;12.47;98.47
66547;BME280;53400;50.364;14.874;2023-10-08T10:42:21;99538.19;;;12.25;96.18
66547;BME280;53400;50.364;14.874;2023-10-08T10:44:49;99527.56;;;11.94;97.90
66547;BME280;53400;50.364;14.874;2023-10-08T10:47:16;99515.69;;;12.02;97.68
66547;BME280;53400;50.364;14.874;2023-10-08T10:49:44;99526.97;;;11.92;95.46
66547;BME280;53400;50.364;14.874;2023-10-08T10:52:20;99531.31;;;12.29;98.16
66547;BME280;53400;50.364;14.874;2023-10-08T10:55:13;99543.69;;;12.42;96.76
66547;BME280;53400;50.364;14.874;2023-10-08T10:57:44;99535.28;;;12.26;97.50
66547;BME280;53400;50.364;14.874;2023-10-08T11:00:20;99543.44;;;12.20;96.79
66547;BME280;53400;50.364;14.874;2023-10-08T11:02:58;99551.72;;;12.53;92.99
66547;BME280;53400;50.364;14.874;2023-10-08T11:05:58;99540.91;;;12.48;93.13
66547;BME280;53400;50.364;14.874;2023-10-08T11:08:26;99540.16;;;12.65;93.43
66547;BME280;53400;50.364;14.874;2023-10-08T11:10:59;99543.28;;;12.85;92.14
66547;BME280;53400;50.364;14.874;2023-10-08T11:13:32;99540.44;;;12.39;91.71
66547;BME280;53400;50.364;14.874;2023-10-08T11:16:04;99548.59;;;12.21;92.10
66547;BME280;53400;50.364;14.874;2023-10-08T11:18:31;99541.09;;;12.58;90.37
66547;BME280;53400;50.364;14.874;2023-10-08T11:21:06;99536.19;;;12.55;89.93
66547;BME280;53400;50.364;14.874;2023-10-08T11:23:42;99527.81;;;12.40;92.84
66547;BME280;53400;50.364;14.874;2023-10-08T11:26:12;99524.53;;;12.50;90.15
66547;BME280;53400;50.364;14.874;2023-10-08T11:28:42;99519.94;;;12.74;86.80
66547;BME280;53400;50.364;14.874;2023-10-08T11:31:11;99513.09;;;12.95;87.50
66547;BME280;53400;50.364;14.874;2023-10-08T11:33:38;99514.03;;;13.00;87.75
66547;BME280;53400;50.364;14.874;2023-10-08T11:36:17;99498.72;;;13.29;84.39
66547;BME280;53400;50.364;14.874;2023-10-08T11:38:46;99513.47;;;13.72;86.56
66547;BME280;53400;50.364;14.874;2023-10-08T11:41:21;99516.34;;;13.83;79.75
66547;BME280;53400;50.364;14.874;2023-10-08T11:43:48;99517.88;;;13.62;86.78
66547;BME280;53400;50.364;14.874;2023-10-08T11:46:21;99523.06;;;13.23;84.55
66547;BME280;53400;50.364;14.874;2023-10-08T11:48:47;99507.56;;;13.42;82.24
66547;BME280;53400;50.364;14.874;2023-10-08T11:51:14;99510.09;;;12.91;80.92
66547;BME280;53400;50.364;14.874;2023-10-08T11:53:43;99508.69;;;13.17;77.22
66547;BME280;53400;50.364;14.874;2023-10-08T11:56:10;99507.69;;;13.06;78.08
66547;BME280;53400;50.364;14.874;2023-10-08T11:58:44;99509.38;;;13.24;77.71
66547;BME280;53400;50.364;14.874;2023-10-08T12:01:13;99513.78;;;13.42;77.23
66547;BME280;53400;50.364;14.874;2023-10-08T12:03:44;99509.16;;;13.26;77.91
66547;BME280;53400;50.364;14.874;2023-10-08T12:06:19;99505.75;;;13.30;77.60
66547;BME280;53400;50.364;14.874;2023-10-08T12:08:45;99505.66;;;13.25;78.53
66547;BME280;53400;50.364;14.874;2023-10-08T12:11:13;99502.75;;;13.44;79.49
66547;BME280;53400;50.364;14.874;2023-10-08T12:13:39;99501.63;;;13.40;74.26
66547;BME280;53400;50.364;14.874;2023-10-08T12:16:18;99510.03;;;13.60;74.26
66547;BME280;53400;50.364;14.874;2023-10-08T12:18:45;99510.69;;;13.50;73.05
66547;BME280;53400;50.364;14.874;2023-10-08T12:21:18;99513.69;;;13.54;73.81
66547;BME280;53400;50.364;14.874;2023-10-08T12:23:44;99507.47;;;13.82;77.44
66547;BME280;53400;50.364;14.874;2023-10-08T12:26:13;99506.47;;;14.05;75.27
66547;BME280;53400;50.364;14.874;2023-10-08T12:28:45;99510.09;;;14.33;74.44
66547;BME280;53400;50.364;14.874;2023-10-08T12:31:12;99511.53;;;14.02;73.36
66547;BME280;53400;50.364;14.874;2023-10-08T12:33:43;99510.28;;;14.26;74.91
66547;BME280;53400;50.364;14.874;2023-10-08T12:36:11;99510.91;;;14.33;72.76
66547;BME280;53400;50.364;14.874;2023-10-08T12:38:37;99500.34;;;14.10;71.11
66547;BME280;53400;50.364;14.874;2023-10-08T12:41:05;99506.69;;;14.20;73.05
66547;BME280;53400;50.364;14.874;2023-10-08T12:43:38;99503.84;;;13.93;71.71
66547;BME280;53400;50.364;14.874;2023-10-08T12:46:05;99499.53;;;14.09;71.87
66547;BME280;53400;50.364;14.874;2023-10-08T12:48:37;99504.25;;;14.02;72.28
66547;BME280;53400;50.364;14.874;2023-10-08T12:51:06;99501.00;;;14.17;72.64
66547;BME280;53400;50.364;14.874;2023-10-08T12:53:32;99501.63;;;14.24;71.66
66547;BME280;53400;50.364;14.874;2023-10-08T12:56:06;99500.22;;;14.38;70.97
66547;BME280;53400;50.364;14.874;2023-10-08T12:58:33;99500.50;;;14.20;69.58
66547;BME280;53400;50.364;14.874;2023-10-08T13:01:21;99495.47;;;14.07;69.41
66547;BME280;53400;50.364;14.874;2023-10-08T13:03:47;99484.59;;;14.18;71.36
66547;BME280;53400;50.364;14.874;2023-10-08T13:06:21;99493.84;;;14.44;69.89
66547;BME280;53400;50.364;14.874;2023-10-08T13:08:48;99494.84;;;14.55;73.42